createdAt,value
2023-04-19T00:01:48.778Z,13.40
2023-04-19T00:04:17.115Z,18.27
2023-04-19T00:06:46.222Z,10.73
2023-04-19T00:09:14.218Z,15.13
2023-04-19T00:11:42.144Z,13.60
2023-04-19T00:14:10.059Z,12.23
2023-04-19T00:16:39.393Z,11.43
2023-04-19T00:19:07.498Z,10.80
2023-04-19T00:21:35.439Z,10.33
2023-04-19T00:24:03.742Z,11.87
2023-04-19T00:26:31.659Z,13.00
2023-04-19T00:28:59.574Z,19.30
2023-04-19T00:31:27.606Z,17.60
2023-04-19T00:33:57.706Z,15.10
2023-04-19T00:36:26.746Z,18.73
2023-04-19T00:38:54.722Z,15.37
2023-04-19T00:41:22.639Z,13.43
2023-04-19T00:43:50.608Z,13.27
2023-04-19T00:46:18.590Z,10.80
2023-04-19T00:48:46.558Z,9.50
2023-04-19T00:51:15.882Z,12.10
2023-04-19T00:53:44.579Z,11.33
2023-04-19T00:56:12.544Z,14.90
2023-04-19T00:58:40.501Z,10.67
2023-04-19T01:01:08.497Z,10.90
2023-04-19T01:03:37.002Z,10.20
2023-04-19T01:06:05.173Z,11.10
2023-04-19T01:08:34.491Z,11.80
2023-04-19T01:11:02.659Z,19.13
2023-04-19T01:13:30.604Z,10.67
2023-04-19T01:15:58.974Z,12.73
2023-04-19T01:18:32.857Z,12.20
2023-04-19T01:21:00.836Z,11.90
2023-04-19T01:23:30.125Z,13.53
2023-04-19T01:25:58.071Z,16.33
2023-04-19T01:28:25.996Z,14.80
2023-04-19T01:30:54.825Z,9.60
2023-04-19T01:33:22.789Z,9.57
2023-04-19T01:35:50.779Z,12.43
2023-04-19T01:38:18.715Z,10.97
2023-04-19T01:40:48.067Z,11.77
2023-04-19T01:43:17.738Z,15.53
2023-04-19T01:45:45.677Z,14.30
2023-04-19T01:48:13.612Z,25.73
2023-04-19T01:50:41.639Z,19.57
2023-04-19T01:53:09.564Z,14.20
2023-04-19T01:55:37.478Z,12.73
2023-04-19T01:58:07.353Z,16.43
2023-04-19T02:00:35.391Z,12.40
2023-04-19T02:03:03.541Z,14.77
2023-04-19T02:05:31.621Z,15.43
2023-04-19T02:08:01.280Z,18.70
2023-04-19T02:10:29.208Z,17.13
2023-04-19T02:12:57.101Z,17.57
2023-04-19T02:15:26.480Z,11.47
2023-04-19T02:17:54.471Z,14.67
2023-04-19T02:20:24.036Z,9.60
2023-04-19T02:22:52.012Z,16.20
2023-04-19T02:25:20.227Z,22.67
2023-04-19T02:27:48.105Z,23.93
2023-04-19T02:30:16.277Z,22.03
2023-04-19T02:32:45.678Z,12.93
2023-04-19T02:35:14.034Z,19.80
2023-04-19T02:37:42.016Z,11.80
2023-04-19T02:40:10.468Z,12.27
2023-04-19T02:42:38.512Z,13.13
2023-04-19T02:45:07.494Z,26.27
2023-04-19T02:47:35.488Z,16.07
2023-04-19T02:50:05.197Z,14.87
2023-04-19T02:52:33.084Z,22.77
2023-04-19T02:55:01.011Z,15.60
2023-04-19T02:57:28.970Z,16.20
2023-04-19T02:59:56.911Z,15.10
2023-04-19T03:02:24.884Z,15.70
2023-04-19T03:04:54.096Z,11.00
2023-04-19T03:07:23.978Z,16.33
2023-04-19T03:09:52.056Z,14.77
2023-04-19T03:12:20.019Z,9.10
2023-04-19T03:14:47.942Z,17.23
2023-04-19T03:17:16.525Z,20.90
2023-04-19T03:19:44.568Z,19.30
2023-04-19T03:22:12.464Z,17.40
2023-04-19T03:24:41.905Z,16.60
2023-04-19T03:27:09.850Z,12.17
2023-04-19T03:29:37.790Z,20.63
2023-04-19T03:32:05.849Z,25.13
2023-04-19T03:34:33.809Z,13.63
2023-04-19T03:37:01.778Z,17.47
2023-04-19T03:39:29.737Z,17.63
2023-04-19T03:41:59.073Z,16.27
2023-04-19T03:44:27.033Z,12.90
2023-04-19T03:46:55.026Z,14.50
2023-04-19T03:49:23.034Z,13.40
2023-04-19T03:51:50.981Z,18.43
2023-04-19T03:54:18.952Z,13.93
2023-04-19T03:56:46.872Z,11.03
2023-04-19T03:59:16.225Z,19.67
2023-04-19T04:01:44.165Z,12.00
2023-04-19T04:04:12.964Z,12.43
2023-04-19T04:06:41.081Z,10.70
2023-04-19T04:09:09.085Z,15.20
2023-04-19T04:11:36.999Z,20.70
2023-04-19T04:14:05.303Z,12.37
2023-04-19T04:16:34.594Z,28.10
2023-04-19T04:19:02.550Z,24.80
2023-04-19T04:21:30.732Z,18.00
2023-04-19T04:23:58.738Z,20.40
2023-04-19T04:26:30.773Z,14.40
2023-04-19T04:28:58.742Z,14.60
2023-04-19T04:31:27.230Z,18.93
2023-04-19T04:33:56.600Z,18.97
2023-04-19T04:36:26.010Z,15.87
2023-04-19T04:38:53.945Z,10.97
2023-04-19T04:41:22.951Z,12.33
2023-04-19T04:44:04.612Z,14.43
2023-04-19T04:46:39.018Z,12.60
2023-04-19T04:49:08.441Z,13.60
2023-04-19T04:51:37.306Z,11.23
2023-04-19T04:54:05.705Z,19.50
2023-04-19T04:56:33.674Z,16.50
2023-04-19T04:59:01.628Z,12.77
2023-04-19T05:01:29.588Z,15.60
2023-04-19T05:03:57.540Z,17.30
2023-04-19T05:06:27.331Z,14.07
2023-04-19T05:08:55.233Z,12.83
2023-04-19T05:11:23.177Z,12.63
2023-04-19T05:13:51.126Z,12.57
2023-04-19T05:16:19.868Z,15.83
2023-04-19T05:18:47.849Z,11.20
2023-04-19T05:21:15.794Z,14.43
2023-04-19T05:23:45.116Z,10.90
2023-04-19T05:26:15.329Z,12.97
2023-04-19T05:28:43.350Z,12.60
2023-04-19T05:31:11.327Z,11.60
2023-04-19T05:33:39.310Z,12.47
2023-04-19T05:36:07.806Z,13.20
2023-04-19T05:38:35.795Z,18.17
2023-04-19T05:41:05.288Z,14.73
2023-04-19T05:43:33.210Z,13.10
2023-04-19T05:46:01.162Z,15.70
2023-04-19T05:48:29.228Z,15.70
2023-04-19T05:50:58.073Z,13.67
2023-04-19T05:53:26.048Z,16.43
2023-04-19T05:55:54.026Z,15.77
2023-04-19T05:58:23.394Z,13.60
2023-04-19T06:00:52.412Z,17.40
2023-04-19T06:03:20.636Z,16.03
2023-04-19T06:05:48.808Z,11.30
2023-04-19T06:08:17.730Z,12.90
2023-04-19T06:10:54.667Z,19.50
2023-04-19T06:13:26.179Z,19.00
2023-04-19T06:15:54.185Z,17.37
2023-04-19T06:18:22.178Z,17.47
2023-04-19T06:20:50.133Z,13.63
2023-04-19T06:23:18.747Z,12.53
2023-04-19T06:25:48.757Z,12.60
2023-04-19T06:28:17.018Z,14.90
2023-04-19T06:30:46.301Z,12.73
2023-04-19T06:33:14.231Z,11.00
2023-04-19T06:35:42.165Z,14.20
2023-04-19T06:38:10.187Z,11.53
2023-04-19T06:40:38.174Z,11.97
2023-04-19T06:43:06.175Z,17.30
2023-04-19T06:45:34.302Z,13.03
2023-04-19T06:48:03.667Z,9.10
2023-04-19T06:50:31.701Z,17.50
2023-04-19T06:52:59.828Z,10.73
2023-04-19T06:55:27.752Z,15.67
2023-04-19T06:57:56.831Z,9.00
2023-04-19T07:00:24.910Z,9.67
2023-04-19T07:02:52.940Z,14.93
2023-04-19T07:05:22.405Z,10.33
2023-04-19T07:07:50.316Z,13.20
2023-04-19T07:10:18.469Z,13.10
2023-04-19T07:12:46.394Z,8.97
2023-04-19T07:15:14.336Z,10.33
2023-04-19T07:17:42.312Z,10.47
2023-04-19T07:20:11.118Z,10.07
2023-04-19T07:22:40.440Z,8.27
2023-04-19T07:25:09.450Z,12.30
2023-04-19T07:27:37.340Z,8.87
2023-04-19T07:30:06.076Z,9.47
2023-04-19T07:32:34.153Z,9.17
2023-04-19T07:35:02.426Z,13.00
2023-04-19T07:37:31.374Z,6.70
2023-04-19T07:40:00.668Z,8.50
2023-04-19T07:42:28.810Z,8.97
2023-04-19T07:44:56.706Z,15.77
2023-04-19T07:47:24.660Z,8.50
2023-04-19T07:49:53.454Z,9.93
2023-04-19T07:52:21.412Z,17.03
2023-04-19T07:54:49.373Z,12.83
2023-04-19T07:57:18.632Z,9.40
2023-04-19T07:59:46.538Z,10.00
2023-04-19T08:02:16.598Z,12.53
2023-04-19T08:04:45.700Z,12.27
2023-04-19T08:07:13.907Z,11.70
2023-04-19T08:09:41.978Z,9.80
2023-04-19T08:12:12.625Z,11.73
2023-04-19T08:14:56.522Z,7.33
2023-04-19T08:17:36.713Z,7.00
2023-04-19T08:20:11.638Z,8.30
2023-04-19T08:22:40.846Z,8.97
2023-04-19T08:25:09.870Z,6.80
2023-04-19T08:27:37.850Z,7.93
2023-04-19T08:30:09.306Z,9.70
2023-04-19T08:32:37.745Z,6.60
2023-04-19T08:35:08.355Z,14.27
2023-04-19T08:37:36.371Z,7.53
2023-04-19T08:40:05.518Z,9.70
2023-04-19T08:42:36.885Z,8.67
2023-04-19T08:47:48.242Z,7.70
2023-04-19T08:50:33.332Z,6.70
2023-04-19T08:55:34.739Z,3.60
2023-04-19T08:58:04.010Z,3.33
2023-04-19T09:00:35.399Z,7.90
2023-04-19T09:03:03.566Z,4.10
2023-04-19T09:05:32.066Z,5.53
2023-04-19T09:08:21.861Z,2.40
2023-04-19T09:10:54.512Z,3.57
2023-04-19T09:13:22.415Z,3.43
2023-04-19T09:15:53.587Z,3.87
2023-04-19T09:18:21.654Z,4.17
2023-04-19T09:20:49.645Z,10.70
2023-04-19T09:23:19.245Z,5.90
2023-04-19T09:28:28.932Z,8.07
2023-04-19T09:31:05.668Z,3.90
2023-04-19T09:33:45.247Z,6.43
2023-04-19T09:36:14.586Z,7.83
2023-04-19T09:38:47.851Z,4.10
2023-04-19T09:41:15.865Z,6.80
2023-04-19T09:43:58.923Z,11.83
2023-04-19T09:46:33.937Z,18.27
2023-04-19T09:49:27.246Z,8.80
2023-04-19T09:51:58.624Z,3.53
2023-04-19T09:54:27.490Z,7.77
2023-04-19T09:56:57.883Z,13.07
2023-04-19T09:59:26.377Z,13.57
2023-04-19T10:01:56.454Z,4.50
2023-04-19T10:04:36.299Z,4.47
2023-04-19T10:09:51.746Z,3.30
2023-04-19T10:14:58.949Z,6.20
2023-04-19T10:17:28.306Z,5.33
2023-04-19T10:19:58.974Z,8.60
2023-04-19T10:22:26.889Z,3.97
2023-04-19T10:25:12.983Z,29.80
2023-04-19T10:27:42.130Z,7.43
2023-04-19T10:30:18.196Z,3.07
2023-04-19T10:32:53.424Z,8.10
2023-04-19T10:35:22.109Z,5.43
2023-04-19T10:38:07.017Z,11.30
2023-04-19T10:40:57.220Z,9.20
2023-04-19T10:43:25.432Z,4.30
2023-04-19T10:45:53.496Z,3.67
2023-04-19T10:48:39.589Z,5.93
2023-04-19T10:51:14.509Z,12.97
2023-04-19T10:53:53.174Z,7.30
2023-04-19T10:56:22.627Z,4.07
2023-04-19T10:59:26.776Z,13.83
2023-04-19T11:01:56.132Z,12.93
2023-04-19T11:04:41.258Z,6.63
2023-04-19T11:07:09.350Z,5.63
2023-04-19T11:09:39.009Z,10.90
2023-04-19T11:12:08.891Z,7.00
2023-04-19T11:14:38.418Z,4.47
2023-04-19T11:17:16.306Z,14.00
2023-04-19T11:19:46.737Z,6.73
2023-04-19T11:22:14.693Z,13.67
2023-04-19T11:24:48.239Z,20.13
2023-04-19T11:27:16.184Z,2.43
2023-04-19T11:29:44.106Z,5.77
2023-04-19T11:32:12.080Z,18.10
2023-04-19T11:34:40.174Z,2.70
2023-04-19T11:37:09.746Z,7.60
2023-04-19T11:39:46.902Z,12.73
2023-04-19T11:42:21.091Z,8.30
2023-04-19T11:44:52.813Z,11.63
2023-04-19T11:47:20.923Z,3.23
2023-04-19T11:49:48.879Z,8.50
2023-04-19T11:52:23.593Z,4.53
2023-04-19T11:54:52.595Z,2.97
2023-04-19T11:57:30.099Z,4.13
2023-04-19T12:00:07.992Z,3.00
2023-04-19T12:02:39.176Z,8.87
2023-04-19T12:05:11.640Z,6.80
2023-04-19T12:07:55.933Z,4.30
2023-04-19T12:10:23.996Z,5.60
2023-04-19T12:12:51.950Z,4.60
2023-04-19T12:15:21.272Z,3.67
2023-04-19T12:17:58.388Z,2.37
2023-04-19T12:20:33.391Z,3.07
2023-04-19T12:23:02.776Z,2.37
2023-04-19T12:25:31.313Z,6.80
2023-04-19T12:27:59.428Z,2.67
2023-04-19T12:30:27.573Z,7.03
2023-04-19T12:32:56.373Z,5.13
2023-04-19T12:35:25.461Z,3.70
2023-04-19T12:37:53.600Z,5.80
2023-04-19T12:40:22.912Z,2.60
2023-04-19T12:42:50.840Z,1.70
2023-04-19T12:45:19.054Z,3.33
2023-04-19T12:47:47.846Z,6.17
2023-04-19T12:50:16.125Z,4.17
2023-04-19T12:52:45.063Z,6.03
2023-04-19T12:55:13.055Z,19.33
2023-04-19T12:57:42.745Z,14.83
2023-04-19T13:00:12.532Z,5.60
2023-04-19T13:02:40.550Z,5.33
2023-04-19T13:05:09.161Z,4.67
2023-04-19T13:07:37.145Z,4.57
2023-04-19T13:10:06.113Z,6.20
2023-04-19T13:12:34.085Z,2.93
2023-04-19T13:15:04.671Z,3.57
2023-04-19T13:17:33.094Z,3.07
2023-04-19T13:20:01.062Z,3.53
2023-04-19T13:22:29.028Z,4.53
2023-04-19T13:24:56.941Z,8.37
2023-04-19T13:27:24.889Z,6.50
2023-04-19T13:29:52.858Z,7.33
2023-04-19T13:32:22.200Z,4.73
2023-04-19T13:34:50.184Z,9.77
2023-04-19T13:37:18.123Z,5.60
2023-04-19T13:39:46.076Z,9.30
2023-04-19T13:42:14.751Z,9.93
2023-04-19T13:44:42.692Z,6.13
2023-04-19T13:47:10.781Z,10.27
2023-04-19T13:49:40.486Z,7.13
2023-04-19T13:52:08.432Z,12.73
2023-04-19T13:54:36.399Z,10.40
2023-04-19T13:57:04.308Z,11.50
2023-04-19T13:59:32.250Z,7.90
2023-04-19T14:02:00.290Z,12.07
2023-04-19T14:04:28.448Z,22.97
2023-04-19T14:06:57.879Z,9.13
2023-04-19T14:09:25.985Z,10.60
2023-04-19T14:11:54.089Z,9.83
2023-04-19T14:14:22.045Z,9.33
2023-04-19T14:16:50.263Z,4.67
2023-04-19T14:19:18.267Z,3.60
2023-04-19T14:21:46.189Z,7.63
2023-04-19T14:24:16.119Z,7.53
2023-04-19T14:26:44.180Z,5.20
2023-04-19T14:29:12.142Z,16.00
2023-04-19T14:31:40.153Z,4.97
2023-04-19T14:34:08.178Z,8.53
2023-04-19T14:36:36.158Z,8.80
2023-04-19T14:39:04.107Z,3.87
2023-04-19T14:41:33.409Z,8.27
2023-04-19T14:44:01.459Z,4.87
2023-04-19T14:46:29.537Z,8.80
2023-04-19T14:49:03.301Z,5.80
2023-04-19T14:51:31.817Z,5.47
2023-04-19T14:53:59.923Z,4.30
2023-04-19T14:56:27.845Z,4.97
2023-04-19T14:58:57.137Z,9.20
2023-04-19T15:01:25.108Z,3.73
2023-04-19T15:03:53.292Z,3.27
2023-04-19T15:06:21.387Z,3.70
2023-04-19T15:08:49.321Z,4.30
2023-04-19T15:11:17.234Z,10.33
2023-04-19T15:13:45.207Z,6.10
2023-04-19T15:16:14.590Z,5.30
2023-04-19T15:18:42.601Z,8.63
2023-04-19T15:21:10.509Z,5.43
2023-04-19T15:23:38.487Z,11.03
2023-04-19T15:26:06.689Z,7.67
2023-04-19T15:28:36.145Z,7.27
2023-04-19T15:31:04.887Z,4.37
2023-04-19T15:33:34.236Z,7.03
2023-04-19T15:36:02.221Z,16.13
2023-04-19T15:38:31.055Z,4.60
2023-04-19T15:40:59.443Z,5.97
2023-04-19T15:43:27.397Z,5.87
2023-04-19T15:45:55.373Z,9.27
2023-04-19T15:48:23.348Z,11.13
2023-04-19T15:50:52.635Z,6.87
2023-04-19T15:53:20.678Z,25.10
2023-04-19T15:55:48.678Z,13.33
2023-04-19T15:58:16.640Z,27.23
2023-04-19T16:00:44.675Z,26.20
2023-04-19T16:03:13.019Z,20.43
2023-04-19T16:05:41.225Z,20.60
2023-04-19T16:08:11.676Z,23.73
2023-04-19T16:10:39.896Z,9.97
2023-04-19T16:13:07.883Z,7.57
2023-04-19T16:15:36.057Z,10.23
2023-04-19T16:18:04.088Z,12.03
2023-04-19T16:20:32.163Z,12.83
2023-04-19T16:23:03.362Z,31.77
2023-04-19T16:25:32.741Z,35.70
2023-04-19T16:28:00.880Z,34.30
2023-04-19T16:30:28.852Z,35.80
2023-04-19T16:32:57.005Z,26.30
2023-04-19T16:35:25.055Z,20.10
2023-04-19T16:37:55.863Z,15.33
2023-04-19T16:40:25.256Z,10.77
2023-04-19T16:42:54.598Z,18.37
2023-04-19T16:45:22.570Z,32.57
2023-04-19T16:47:50.591Z,44.93
2023-04-19T16:50:19.125Z,44.07
2023-04-19T16:52:47.131Z,62.97
2023-04-19T16:55:15.661Z,67.30
2023-04-19T16:57:43.668Z,41.30
2023-04-19T17:00:14.401Z,27.53
2023-04-19T17:02:42.420Z,20.67
2023-04-19T17:05:12.729Z,19.30
2023-04-19T17:07:40.796Z,16.60
2023-04-19T17:10:09.831Z,19.80
2023-04-19T17:12:37.762Z,47.97
2023-04-19T17:15:06.843Z,24.73
2023-04-19T17:17:36.231Z,26.50
2023-04-19T17:20:05.977Z,12.87
2023-04-19T17:22:33.909Z,20.30
2023-04-19T17:25:01.822Z,20.77
2023-04-19T17:27:29.726Z,35.00
2023-04-19T17:29:57.686Z,38.90
2023-04-19T17:32:25.661Z,16.93
2023-04-19T17:34:54.986Z,19.57
2023-04-19T17:37:22.970Z,22.43
2023-04-19T17:39:50.973Z,18.00
2023-04-19T17:42:18.945Z,11.43
2023-04-19T17:44:47.309Z,8.87
2023-04-19T17:47:15.282Z,11.67
2023-04-19T17:49:45.845Z,13.93
2023-04-19T17:52:15.248Z,15.20
2023-04-19T17:54:43.183Z,13.07
2023-04-19T17:57:11.157Z,13.60
2023-04-19T17:59:39.110Z,10.53
2023-04-19T18:02:10.156Z,15.30
2023-04-19T18:04:39.560Z,8.53
2023-04-19T18:07:07.581Z,14.90
2023-04-19T18:09:36.910Z,10.50
2023-04-19T18:12:05.817Z,15.93
2023-04-19T18:14:33.789Z,8.80
2023-04-19T18:17:02.146Z,8.40
2023-04-19T18:19:30.147Z,5.80
2023-04-19T18:21:58.265Z,6.30
2023-04-19T18:24:26.237Z,18.63
2023-04-19T18:26:55.558Z,16.00
2023-04-19T18:29:24.371Z,15.03
2023-04-19T18:31:52.967Z,6.73
2023-04-19T18:34:21.009Z,9.80
2023-04-19T18:36:49.052Z,11.07
2023-04-19T18:39:18.833Z,10.50
2023-04-19T18:41:46.996Z,5.57
2023-04-19T18:44:38.891Z,7.87
2023-04-19T18:47:04.500Z,5.53
2023-04-19T18:49:32.858Z,11.50
2023-04-19T18:52:00.824Z,10.53
2023-04-19T18:54:28.828Z,12.03
2023-04-19T18:57:21.950Z,8.03
2023-04-19T18:59:46.383Z,9.83
2023-04-19T19:02:14.410Z,15.17
2023-04-19T19:04:51.889Z,7.53
2023-04-19T19:07:35.569Z,6.30
2023-04-19T19:10:17.045Z,10.30
2023-04-19T19:12:46.792Z,7.13
2023-04-19T19:15:16.105Z,5.93
2023-04-19T19:17:49.238Z,12.83
2023-04-19T19:20:18.617Z,12.80
2023-04-19T19:22:46.590Z,7.63
2023-04-19T19:25:14.560Z,10.93
2023-04-19T19:27:58.306Z,6.07
2023-04-19T19:30:33.943Z,8.17
2023-04-19T19:33:02.543Z,8.50
2023-04-19T19:35:30.673Z,7.40
2023-04-19T19:37:58.715Z,11.23
2023-04-19T19:40:31.194Z,9.13
2023-04-19T19:43:00.768Z,5.50
2023-04-19T19:45:29.398Z,5.70
2023-04-19T19:48:00.027Z,8.70
2023-04-19T19:53:00.279Z,9.30
2023-04-19T19:55:28.555Z,8.97
2023-04-19T20:02:59.640Z,15.80
2023-04-19T20:05:28.716Z,7.07
2023-04-19T20:08:06.114Z,11.00
2023-04-19T20:10:34.126Z,9.50
2023-04-19T20:13:02.471Z,7.43
2023-04-19T20:15:31.083Z,10.70
2023-04-19T20:18:00.516Z,9.03
2023-04-19T20:20:28.544Z,12.77
2023-04-19T20:22:56.565Z,9.87
2023-04-19T20:25:24.525Z,11.23
2023-04-19T20:27:52.551Z,9.77
2023-04-19T20:30:20.504Z,10.80
2023-04-19T20:32:50.322Z,12.23
2023-04-19T20:35:19.931Z,8.83
2023-04-19T20:37:47.959Z,15.40
2023-04-19T20:40:16.334Z,7.77
2023-04-19T20:42:45.049Z,4.70
2023-04-19T20:45:14.387Z,13.30
2023-04-19T20:47:42.819Z,8.43
2023-04-19T20:50:11.384Z,12.90
2023-04-19T20:52:41.317Z,9.80
2023-04-19T20:55:10.211Z,13.30
2023-04-19T20:57:38.185Z,10.10
2023-04-19T21:00:08.735Z,12.33
2023-04-19T21:02:36.833Z,8.13
2023-04-19T21:05:05.189Z,4.43
2023-04-19T21:07:33.647Z,14.17
2023-04-19T21:10:03.000Z,7.20
2023-04-19T21:12:30.943Z,5.57
2023-04-19T21:14:58.914Z,5.73
2023-04-19T21:17:27.189Z,4.77
2023-04-19T21:19:55.151Z,5.23
2023-04-19T21:22:23.093Z,6.97
2023-04-19T21:24:51.069Z,5.20
2023-04-19T21:27:20.575Z,6.00
2023-04-19T21:29:48.541Z,5.43
2023-04-19T21:32:25.873Z,4.60
2023-04-19T21:34:53.878Z,9.77
2023-04-19T21:37:21.920Z,6.07
2023-04-19T21:39:50.481Z,3.23
2023-04-19T21:42:18.454Z,5.13
2023-04-19T21:44:47.753Z,4.97
2023-04-19T21:47:15.674Z,4.10
2023-04-19T21:49:43.580Z,5.47
2023-04-19T21:52:11.510Z,5.17
2023-04-19T21:54:39.482Z,6.90
2023-04-19T21:57:07.434Z,5.77
2023-04-19T21:59:36.038Z,9.53
2023-04-19T22:02:05.501Z,5.60
2023-04-19T22:04:33.533Z,7.30
2023-04-19T22:07:02.980Z,9.97
2023-04-19T22:09:31.362Z,7.43
2023-04-19T22:12:00.269Z,8.60
2023-04-19T22:14:28.507Z,7.87
2023-04-19T22:16:56.753Z,11.40
2023-04-19T22:19:26.213Z,9.90
2023-04-19T22:21:55.154Z,7.60
2023-04-19T22:24:23.333Z,7.10
2023-04-19T22:26:53.082Z,8.07
2023-04-19T22:29:21.466Z,9.13
2023-04-19T22:31:49.610Z,7.63
2023-04-19T22:34:17.634Z,6.80
2023-04-19T22:36:47.235Z,10.90
2023-04-19T22:39:25.773Z,6.30
2023-04-19T22:42:02.598Z,9.73
2023-04-19T22:44:45.966Z,6.00
2023-04-19T22:47:20.376Z,4.33
2023-04-19T22:50:02.083Z,5.43
2023-04-19T22:52:44.599Z,6.47
2023-04-19T22:55:17.876Z,4.60
2023-04-19T22:58:06.471Z,5.63
2023-04-19T23:00:48.473Z,4.73
2023-04-19T23:03:31.577Z,4.00
2023-04-19T23:06:11.487Z,3.07
2023-04-19T23:08:41.480Z,3.70
2023-04-19T23:11:10.132Z,4.03
2023-04-19T23:13:41.397Z,4.70
2023-04-19T23:16:10.860Z,2.93
2023-04-19T23:18:40.241Z,4.83
2023-04-19T23:21:08.655Z,6.07
2023-04-19T23:23:36.702Z,4.03
2023-04-19T23:26:06.055Z,6.53
2023-04-19T23:28:34.006Z,4.30
2023-04-19T23:31:01.986Z,6.67
2023-04-19T23:33:29.958Z,3.50
2023-04-19T23:35:57.922Z,9.40
2023-04-19T23:38:25.944Z,4.80
2023-04-19T23:40:53.932Z,6.90
2023-04-19T23:43:23.233Z,10.53
2023-04-19T23:45:51.236Z,6.60
2023-04-19T23:48:19.180Z,8.20
2023-04-19T23:50:47.138Z,5.57
2023-04-19T23:53:15.099Z,5.93
2023-04-19T23:55:43.052Z,4.53
2023-04-19T23:58:10.999Z,3.73
